This is the latest recevied weather packets stored in our database for station/object K8BCO. If no packets are shown the sender has not sent any weather packets the latest 1 day(s).
| Time | Temp. | Humidity | Pressure | Rain* | Wind** | Luminosity | Snow |
|---|---|---|---|---|---|---|---|
| 1778033116 | 2.22° C | 58% | 1009.7 hPa | 0 mm | 0.89 m/s, 297° | 0 W/m² | - |
| 1778032517 | 2.78° C | 57% | 1009.7 hPa | 0 mm | 0.89 m/s, 318° | 0 W/m² | - |
| 1778031920 | 2.22° C | 56% | 1009.5 hPa | 0 mm | 1.34 m/s, 309° | 0 W/m² | - |
| 1778031317 | 2.22° C | 57% | 1009.5 hPa | 0 mm | 1.34 m/s, 293° | 0 W/m² | - |
| 1778030717 | 2.22° C | 58% | 1009.5 hPa | 0 mm | 1.34 m/s, 337° | 0 W/m² | - |
| 1778030128 | 2.22° C | 58% | 1009.4 hPa | 0 mm | 1.34 m/s, 282° | 2 W/m² | - |
| 1778029517 | 2.78° C | 57% | 1009.4 hPa | 0 mm | 1.34 m/s, 270° | 4 W/m² | - |
| 1778028917 | 2.78° C | 56% | 1009.4 hPa | 0 mm | 1.79 m/s, 316° | 9 W/m² | - |
| 1778028317 | 3.33° C | 56% | 1009.2 hPa | 0 mm | 1.79 m/s, 347° | 18 W/m² | - |
| 1778027717 | 3.89° C | 54% | 1009 hPa | 0 mm | 2.24 m/s, 267° | 27 W/m² | - |
| 1778027118 | 3.89° C | 54% | 1008.9 hPa | 0 mm | 1.34 m/s, 337° | 32 W/m² | - |
| 1778026518 | 3.89° C | 54% | 1008.8 hPa | 0 mm | 2.24 m/s, 317° | 41 W/m² | - |
| 1778025919 | 3.89° C | 53% | 1008.7 hPa | 0 mm | 2.24 m/s, 346° | 49 W/m² | - |
| 1778025319 | 4.44° C | 54% | 1008.7 hPa | 0 mm | 1.79 m/s, 275° | 61 W/m² | - |
| 1778024721 | 4.44° C | 52% | 1008.6 hPa | 0 mm | 1.79 m/s, 292° | 76 W/m² | - |
| 1778024118 | 5° C | 52% | 1008.6 hPa | 0 mm | 1.79 m/s, 302° | 128 W/m² | - |
| 1778023520 | 5° C | 51% | 1008.5 hPa | 0 mm | 1.79 m/s, 333° | 116 W/m² | - |
| 1778022922 | 5° C | 51% | 1008.5 hPa | 0 mm | 2.24 m/s, 261° | 158 W/m² | - |
| 1778022316 | 5° C | 50% | 1008.5 hPa | 0 mm | 2.24 m/s, 320° | 195 W/m² | - |
| 1778021716 | 5° C | 52% | 1008.5 hPa | 0 mm | 1.79 m/s, 348° | 172 W/m² | - |
| 1778021116 | 5° C | 51% | 1008.5 hPa | 0 mm | 1.34 m/s, 193° | 145 W/m² | - |
| 1778020516 | 5° C | 51% | 1008.4 hPa | 0 mm | 2.68 m/s, 244° | 219 W/m² | - |
| 1778019916 | 5° C | 51% | 1008.4 hPa | 0 mm | 2.24 m/s, 2° | 197 W/m² | - |
| 1778019317 | 5° C | 50% | 1008.2 hPa | 0 mm | 2.24 m/s, 354° | 300 W/m² | - |
| 1778018717 | 5° C | 50% | 1008.2 hPa | 0 mm | 1.79 m/s, 281° | 289 W/m² | - |
* Rain latest hour (hover to see other rain measurements)
** Current wind speed in m/s (hover to see current wind gust speed)